createdAt,value
2023-04-08T00:01:39.037Z,79.70
2023-04-08T00:04:10.756Z,79.60
2023-04-08T00:06:40.114Z,78.90
2023-04-08T00:09:08.195Z,79.00
2023-04-08T00:11:36.849Z,78.80
2023-04-08T00:14:05.504Z,78.50
2023-04-08T00:16:34.510Z,78.40
2023-04-08T00:19:02.776Z,79.20
2023-04-08T00:21:31.784Z,78.10
2023-04-08T00:24:00.695Z,78.30
2023-04-08T00:26:29.568Z,79.60
2023-04-08T00:28:57.938Z,79.40
2023-04-08T00:31:26.516Z,79.30
2023-04-08T00:33:54.645Z,80.20
2023-04-08T00:36:22.968Z,79.80
2023-04-08T00:38:52.336Z,79.90
2023-04-08T00:41:20.772Z,82.10
2023-04-08T00:43:48.908Z,81.10
2023-04-08T00:46:17.969Z,81.80
2023-04-08T00:49:02.790Z,82.00
2023-04-08T00:51:34.261Z,82.20
2023-04-08T00:54:04.941Z,82.30
2023-04-08T00:56:35.031Z,81.90
2023-04-08T00:59:03.201Z,80.90
2023-04-08T01:01:48.621Z,80.70
2023-04-08T01:04:43.953Z,81.10
2023-04-08T01:07:34.253Z,80.50
2023-04-08T01:10:49.055Z,79.90
2023-04-08T01:13:24.823Z,79.50
2023-04-08T01:15:54.975Z,77.90
2023-04-08T01:20:59.552Z,78.40
2023-04-08T01:23:52.547Z,78.00
2023-04-08T01:29:15.834Z,78.10
2023-04-08T01:31:45.043Z,77.80
2023-04-08T01:34:22.851Z,77.80
2023-04-08T01:37:01.024Z,78.30
2023-04-08T01:39:31.241Z,78.20
2023-04-08T01:42:00.120Z,77.10
2023-04-08T01:44:38.300Z,77.30
2023-04-08T01:47:11.783Z,76.80
2023-04-08T01:49:41.583Z,77.90
2023-04-08T01:52:11.556Z,78.50
2023-04-08T01:54:40.154Z,78.30
2023-04-08T01:57:15.368Z,77.80
2023-04-08T02:02:36.159Z,77.40
2023-04-08T02:05:11.260Z,78.00
2023-04-08T02:07:39.645Z,77.50
2023-04-08T02:10:08.496Z,77.60
2023-04-08T02:12:36.764Z,77.00
2023-04-08T02:15:06.092Z,76.30
2023-04-08T02:20:54.641Z,76.50
2023-04-08T02:23:25.610Z,75.80
2023-04-08T02:28:22.513Z,75.00
2023-04-08T02:30:53.472Z,74.50
2023-04-08T02:33:23.629Z,74.40
2023-04-08T02:35:55.238Z,74.20
2023-04-08T02:38:24.493Z,73.90
2023-04-08T02:40:52.716Z,74.00
2023-04-08T02:43:20.905Z,74.10
2023-04-08T02:45:49.642Z,74.00
2023-04-08T02:48:18.312Z,73.60
2023-04-08T02:50:46.387Z,73.40
2023-04-08T02:53:14.537Z,73.50
2023-04-08T02:56:05.984Z,73.40
2023-04-08T03:04:56.091Z,73.00
2023-04-08T03:07:24.512Z,72.80
2023-04-08T03:09:52.963Z,73.00
2023-04-08T03:12:24.530Z,73.00
2023-04-08T03:14:55.334Z,72.50
2023-04-08T03:17:23.719Z,73.70
2023-04-08T03:19:51.984Z,74.30
2023-04-08T03:22:20.872Z,73.50
2023-04-08T03:24:56.191Z,73.30
2023-04-08T03:27:25.860Z,73.50
2023-04-08T03:29:54.375Z,73.60
2023-04-08T03:32:23.137Z,73.70
2023-04-08T03:34:51.649Z,73.80
2023-04-08T03:37:44.371Z,73.60
2023-04-08T03:40:13.641Z,73.70
2023-04-08T03:42:49.872Z,73.90
2023-04-08T03:45:26.183Z,73.40
2023-04-08T03:50:40.744Z,73.40
2023-04-08T03:53:13.814Z,73.20
2023-04-08T03:55:42.068Z,73.10
2023-04-08T04:02:36.129Z,72.90
2023-04-08T04:05:04.865Z,73.00
2023-04-08T04:10:40.964Z,72.80
2023-04-08T04:13:09.205Z,72.30
2023-04-08T04:15:41.033Z,72.50
2023-04-08T04:18:09.874Z,72.20
2023-04-08T04:20:42.717Z,72.40
2023-04-08T04:23:11.251Z,72.40
2023-04-08T04:25:43.323Z,71.70
2023-04-08T04:28:11.420Z,71.80
2023-04-08T04:30:42.802Z,71.80
2023-04-08T04:33:16.206Z,71.90
2023-04-08T04:35:44.535Z,72.20
2023-04-08T04:38:14.299Z,72.10
2023-04-08T04:40:42.036Z,71.80
2023-04-08T04:43:10.448Z,71.70
2023-04-08T04:45:38.514Z,71.40
2023-04-08T04:48:06.744Z,71.70
2023-04-08T04:50:34.949Z,71.30
2023-04-08T04:53:04.997Z,71.20
2023-04-08T04:55:33.700Z,71.20
2023-04-08T04:58:02.106Z,71.20
2023-04-08T05:00:30.876Z,71.30
2023-04-08T05:03:02.266Z,71.20
2023-04-08T05:05:30.445Z,71.20
2023-04-08T05:08:10.445Z,71.20
2023-04-08T05:10:39.205Z,70.90
2023-04-08T05:13:07.205Z,70.60
2023-04-08T05:15:35.263Z,70.70
2023-04-08T05:18:09.737Z,71.00
2023-04-08T05:20:38.654Z,70.80
2023-04-08T05:23:19.083Z,70.50
2023-04-08T05:25:58.188Z,70.20
2023-04-08T05:28:32.558Z,70.20
2023-04-08T05:31:00.775Z,70.00
2023-04-08T05:33:31.486Z,69.80
2023-04-08T05:36:00.707Z,69.50
2023-04-08T05:38:29.640Z,69.70
2023-04-08T05:40:57.818Z,69.60
2023-04-08T05:43:27.177Z,68.50
2023-04-08T05:45:55.354Z,69.10
2023-04-08T05:51:16.230Z,68.70
2023-04-08T05:53:53.882Z,68.70
2023-04-08T05:56:24.360Z,69.00
2023-04-08T06:01:46.527Z,68.50
2023-04-08T06:04:19.234Z,68.10
2023-04-08T06:07:10.731Z,67.90
2023-04-08T06:09:45.446Z,67.90
2023-04-08T06:12:13.576Z,68.20
2023-04-08T06:14:42.996Z,68.20
2023-04-08T06:17:11.105Z,67.70
2023-04-08T06:19:39.165Z,67.90
2023-04-08T06:22:08.418Z,68.40
2023-04-08T06:24:36.668Z,68.50
2023-04-08T06:29:43.427Z,68.50
2023-04-08T06:32:11.973Z,68.60
2023-04-08T06:34:41.450Z,69.10
2023-04-08T06:37:09.994Z,68.90
2023-04-08T06:39:39.326Z,69.00
2023-04-08T06:42:07.781Z,69.30
2023-04-08T06:44:36.719Z,69.20
2023-04-08T06:47:25.285Z,69.20
2023-04-08T06:49:54.873Z,69.90
2023-04-08T06:52:26.612Z,69.20
2023-04-08T06:55:04.897Z,68.90
2023-04-08T06:57:36.740Z,68.60
2023-04-08T07:00:11.711Z,68.50
2023-04-08T07:02:40.589Z,68.30
2023-04-08T07:05:22.204Z,67.80
2023-04-08T07:07:58.933Z,68.10
2023-04-08T07:10:37.512Z,67.70
2023-04-08T07:13:22.768Z,67.10
2023-04-08T07:15:52.566Z,67.60
2023-04-08T07:18:24.000Z,67.70
2023-04-08T07:20:58.283Z,67.60
2023-04-08T07:23:32.418Z,67.70
2023-04-08T07:26:08.035Z,67.80
2023-04-08T07:28:39.270Z,68.00
2023-04-08T07:31:18.379Z,68.20
2023-04-08T07:33:47.089Z,68.50
2023-04-08T07:36:24.412Z,69.10
2023-04-08T07:38:53.441Z,69.10
2023-04-08T07:41:22.113Z,68.70
2023-04-08T07:43:53.464Z,68.90
2023-04-08T07:46:21.763Z,69.00
2023-04-08T07:49:03.191Z,69.40
2023-04-08T07:51:31.389Z,69.80
2023-04-08T07:54:00.556Z,70.00
2023-04-08T07:56:28.802Z,69.70
2023-04-08T07:58:57.482Z,69.60
2023-04-08T08:01:27.850Z,69.50
2023-04-08T08:03:57.503Z,69.50
2023-04-08T08:06:37.825Z,70.00
2023-04-08T08:09:06.173Z,70.00
2023-04-08T08:11:34.689Z,70.20
2023-04-08T08:14:02.878Z,70.90
2023-04-08T08:16:34.360Z,69.80
2023-04-08T08:19:02.724Z,70.30
2023-04-08T08:21:35.128Z,70.50
2023-04-08T08:24:03.451Z,70.50
2023-04-08T08:26:31.829Z,70.20
2023-04-08T08:28:59.990Z,70.40
2023-04-08T08:31:29.368Z,70.20
2023-04-08T08:33:57.696Z,70.00
2023-04-08T08:36:31.765Z,70.00
2023-04-08T08:39:01.841Z,70.00
2023-04-08T08:41:38.254Z,69.70
2023-04-08T08:44:14.313Z,69.40
2023-04-08T08:46:49.220Z,69.20
2023-04-08T08:49:18.353Z,69.20
2023-04-08T08:51:47.956Z,69.20
2023-04-08T08:54:20.312Z,69.20
2023-04-08T08:56:54.480Z,69.10
2023-04-08T08:59:29.374Z,68.90
2023-04-08T09:01:57.624Z,68.60
2023-04-08T09:04:27.009Z,68.60
2023-04-08T09:07:14.496Z,68.50
2023-04-08T09:09:56.880Z,68.60
2023-04-08T09:12:27.649Z,68.60
2023-04-08T09:15:11.064Z,68.30
2023-04-08T09:17:41.794Z,68.80
2023-04-08T09:20:15.573Z,68.90
2023-04-08T09:23:02.537Z,69.10
2023-04-08T09:25:36.055Z,69.00
2023-04-08T09:28:05.033Z,68.90
2023-04-08T09:30:33.760Z,68.90
2023-04-08T09:33:04.894Z,69.10
2023-04-08T09:35:33.099Z,69.30
2023-04-08T09:38:02.946Z,69.10
2023-04-08T09:40:36.124Z,69.40
2023-04-08T09:43:17.184Z,69.40
2023-04-08T09:45:48.700Z,69.10
2023-04-08T09:48:29.876Z,69.30
2023-04-08T09:51:00.246Z,70.10
2023-04-08T09:53:36.036Z,70.10
2023-04-08T09:56:11.334Z,70.20
2023-04-08T09:58:46.455Z,70.40
2023-04-08T10:01:19.080Z,70.90
2023-04-08T10:03:53.659Z,71.00
2023-04-08T10:06:28.383Z,70.90
2023-04-08T10:09:00.402Z,70.90
2023-04-08T10:11:28.790Z,71.20
2023-04-08T10:13:56.956Z,70.70
2023-04-08T10:16:27.825Z,70.90
2023-04-08T10:18:57.033Z,71.00
2023-04-08T10:21:39.189Z,71.10
2023-04-08T10:24:13.300Z,71.50
2023-04-08T10:26:46.359Z,71.40
2023-04-08T10:29:21.975Z,71.60
2023-04-08T10:31:53.678Z,71.70
2023-04-08T10:34:28.380Z,71.60
2023-04-08T10:36:59.648Z,72.00
2023-04-08T10:39:28.522Z,71.90
2023-04-08T10:41:56.754Z,72.10
2023-04-08T10:44:27.152Z,72.00
2023-04-08T10:46:56.054Z,72.10
2023-04-08T10:49:33.484Z,72.00
2023-04-08T10:52:02.065Z,72.00
2023-04-08T10:54:30.351Z,72.20
2023-04-08T10:56:58.397Z,72.20
2023-04-08T10:59:36.040Z,72.40
2023-04-08T11:02:04.344Z,72.10
2023-04-08T11:04:33.479Z,72.20
2023-04-08T11:07:06.000Z,72.40
2023-04-08T11:09:35.907Z,72.00
2023-04-08T11:12:04.243Z,72.10
2023-04-08T11:14:33.509Z,72.30
2023-04-08T11:17:02.776Z,72.30
2023-04-08T11:19:30.890Z,72.60
2023-04-08T11:21:59.618Z,72.50
2023-04-08T11:24:27.666Z,73.20
2023-04-08T11:26:55.997Z,73.50
2023-04-08T11:29:24.150Z,74.20
2023-04-08T11:31:53.267Z,74.10
2023-04-08T11:34:25.547Z,73.90
2023-04-08T11:36:53.787Z,74.30
2023-04-08T11:39:24.366Z,74.20
2023-04-08T11:41:53.445Z,74.00
2023-04-08T11:44:30.354Z,74.20
2023-04-08T11:46:58.955Z,74.60
2023-04-08T11:49:27.080Z,73.70
2023-04-08T11:52:03.784Z,73.90
2023-04-08T11:54:33.785Z,74.90
2023-04-08T11:57:04.080Z,74.90
2023-04-08T11:59:33.632Z,74.60
2023-04-08T12:02:02.356Z,74.90
2023-04-08T12:04:30.784Z,75.00
2023-04-08T12:06:59.281Z,75.00
2023-04-08T12:09:27.760Z,75.30
2023-04-08T12:11:57.587Z,74.90
2023-04-08T12:14:27.688Z,75.20
2023-04-08T12:16:56.907Z,75.50
2023-04-08T12:19:25.172Z,75.50
2023-04-08T12:21:53.151Z,75.00
2023-04-08T12:24:23.010Z,75.90
2023-04-08T12:26:50.615Z,75.80
2023-04-08T12:29:18.573Z,75.80
2023-04-08T12:31:46.984Z,75.30
2023-04-08T12:34:15.880Z,75.60
2023-04-08T12:36:45.126Z,75.50
2023-04-08T12:39:13.142Z,75.50
2023-04-08T12:41:41.199Z,75.80
2023-04-08T12:44:09.333Z,76.00
2023-04-08T12:46:37.372Z,76.20
2023-04-08T12:49:06.056Z,75.60
2023-04-08T12:51:35.041Z,75.50
2023-04-08T12:54:04.260Z,76.30
2023-04-08T12:56:32.799Z,75.90
2023-04-08T12:59:02.437Z,77.80
2023-04-08T13:01:31.162Z,76.40
2023-04-08T13:03:59.581Z,76.50
2023-04-08T13:06:28.437Z,76.60
2023-04-08T13:08:56.802Z,76.90
2023-04-08T13:11:24.809Z,77.40
2023-04-08T13:13:53.614Z,77.50
2023-04-08T13:16:22.886Z,77.60
2023-04-08T13:18:51.316Z,77.80
2023-04-08T13:21:19.602Z,77.80
2023-04-08T13:23:48.362Z,78.00
2023-04-08T13:26:17.212Z,77.60
2023-04-08T13:31:18.170Z,78.20
2023-04-08T13:33:46.172Z,77.90
2023-04-08T13:36:14.250Z,79.00
2023-04-08T13:38:42.278Z,78.40
2023-04-08T13:41:10.232Z,77.50
2023-04-08T13:43:38.248Z,78.10
2023-04-08T13:46:06.597Z,77.60
2023-04-08T13:48:34.557Z,77.30
2023-04-08T13:51:02.540Z,77.50
2023-04-08T13:53:30.761Z,78.00
2023-04-08T13:55:59.368Z,78.10
2023-04-08T13:58:27.417Z,77.70
2023-04-08T14:00:56.060Z,77.90
2023-04-08T14:03:24.132Z,78.00
2023-04-08T14:05:52.621Z,78.30
2023-04-08T14:08:26.634Z,78.30
2023-04-08T14:10:57.810Z,78.00
2023-04-08T14:13:25.938Z,78.60
2023-04-08T14:15:55.306Z,77.20
2023-04-08T14:18:23.592Z,77.60
2023-04-08T14:20:51.584Z,79.60
2023-04-08T14:23:20.461Z,78.40
2023-04-08T14:25:48.370Z,78.60
2023-04-08T14:28:17.202Z,78.30
2023-04-08T14:30:45.277Z,78.60
2023-04-08T14:33:13.837Z,77.80
2023-04-08T14:35:42.073Z,77.90
2023-04-08T14:38:10.628Z,79.00
2023-04-08T14:40:38.587Z,78.20
2023-04-08T14:43:06.914Z,79.30
2023-04-08T14:45:34.935Z,80.00
2023-04-08T14:48:03.078Z,79.70
2023-04-08T14:50:31.951Z,79.40
2023-04-08T14:53:00.373Z,79.60
2023-04-08T14:55:30.152Z,79.60
2023-04-08T14:58:00.448Z,79.10
2023-04-08T15:00:29.109Z,79.40
2023-04-08T15:02:57.516Z,79.50
2023-04-08T15:05:25.915Z,79.10
2023-04-08T15:07:54.746Z,79.00
2023-04-08T15:10:22.911Z,78.40
2023-04-08T15:12:51.030Z,78.90
2023-04-08T15:15:19.105Z,79.20
2023-04-08T15:17:47.246Z,79.00
2023-04-08T15:20:15.391Z,79.40
2023-04-08T15:22:43.606Z,79.40
2023-04-08T15:25:12.200Z,79.50
2023-04-08T15:27:41.872Z,79.30
2023-04-08T15:30:12.372Z,79.50
2023-04-08T15:32:41.774Z,78.90
2023-04-08T15:35:10.341Z,79.60
2023-04-08T15:37:38.500Z,79.40
2023-04-08T15:40:07.698Z,79.20
2023-04-08T15:42:36.230Z,79.00
2023-04-08T15:45:08.201Z,78.90
2023-04-08T15:47:36.230Z,79.00
2023-04-08T15:50:04.600Z,78.60
2023-04-08T15:52:35.368Z,78.60
2023-04-08T15:55:03.433Z,78.80
2023-04-08T15:57:32.531Z,78.60
2023-04-08T16:00:00.840Z,78.80
2023-04-08T16:02:29.122Z,78.90
2023-04-08T16:04:58.181Z,79.20
2023-04-08T16:07:26.468Z,78.90
2023-04-08T16:09:54.713Z,79.10
2023-04-08T16:12:23.824Z,79.90
2023-04-08T16:14:52.091Z,78.90
2023-04-08T16:17:20.276Z,79.40
2023-04-08T16:19:48.340Z,79.30
2023-04-08T16:22:16.420Z,79.40
2023-04-08T16:24:44.524Z,79.10
2023-04-08T16:27:12.791Z,78.90
2023-04-08T16:29:41.038Z,78.60
2023-04-08T16:32:09.314Z,78.20
2023-04-08T16:34:37.715Z,79.20
2023-04-08T16:37:05.820Z,79.50
2023-04-08T16:39:33.880Z,79.70
2023-04-08T16:42:02.249Z,79.60
2023-04-08T16:44:30.364Z,80.00
2023-04-08T16:46:58.403Z,80.70
2023-04-08T16:49:26.488Z,79.60
2023-04-08T16:51:55.417Z,79.90
2023-04-08T16:54:23.574Z,79.70
2023-04-08T16:56:51.699Z,79.60
2023-04-08T16:59:19.992Z,79.90
2023-04-08T17:01:49.637Z,80.00
2023-04-08T17:04:17.919Z,79.90
2023-04-08T17:06:46.309Z,79.10
2023-04-08T17:09:14.646Z,79.30
2023-04-08T17:11:42.969Z,79.10
2023-04-08T17:14:11.929Z,78.60
2023-04-08T17:16:40.090Z,78.70
2023-04-08T17:19:08.197Z,79.40
2023-04-08T17:21:36.530Z,79.80
2023-04-08T17:24:04.662Z,79.20
2023-04-08T17:26:33.016Z,79.40
2023-04-08T17:29:01.129Z,79.70
2023-04-08T17:31:29.682Z,79.80
2023-04-08T17:33:57.761Z,79.90
2023-04-08T17:36:26.487Z,80.10
2023-04-08T17:38:55.597Z,79.80
2023-04-08T17:41:38.445Z,79.00
2023-04-08T17:44:07.605Z,79.30
2023-04-08T17:46:35.926Z,79.70
2023-04-08T17:49:03.965Z,79.90
2023-04-08T17:51:33.145Z,80.80
2023-04-08T17:54:01.319Z,80.70
2023-04-08T17:56:29.393Z,80.80
2023-04-08T17:58:57.446Z,80.90
2023-04-08T18:01:26.362Z,80.90
2023-04-08T18:03:54.829Z,80.70
2023-04-08T18:06:23.197Z,81.00
2023-04-08T18:08:51.290Z,81.00
2023-04-08T18:11:20.195Z,82.40
2023-04-08T18:13:49.159Z,79.70
2023-04-08T18:16:18.643Z,80.80
2023-04-08T18:18:47.480Z,80.90
2023-04-08T18:21:18.457Z,80.80
2023-04-08T18:23:50.058Z,81.00
2023-04-08T18:26:18.510Z,80.70
2023-04-08T18:28:46.676Z,81.00
2023-04-08T18:31:14.877Z,81.20
2023-04-08T18:33:44.011Z,81.40
2023-04-08T18:36:14.108Z,81.40
2023-04-08T18:38:42.408Z,81.40
2023-04-08T18:41:10.733Z,81.60
2023-04-08T18:43:38.764Z,80.50
2023-04-08T18:46:07.291Z,81.00
2023-04-08T18:48:35.953Z,81.00
2023-04-08T18:51:04.189Z,80.30
2023-04-08T18:53:32.425Z,80.30
2023-04-08T18:56:00.921Z,80.40
2023-04-08T18:58:29.003Z,80.90
2023-04-08T19:00:57.118Z,81.00
2023-04-08T19:03:27.450Z,80.80
2023-04-08T19:05:55.726Z,80.60
2023-04-08T19:08:24.428Z,80.90
2023-04-08T19:10:52.464Z,81.20
2023-04-08T19:13:22.469Z,80.60
2023-04-08T19:15:50.966Z,81.40
2023-04-08T19:18:19.142Z,81.80
2023-04-08T19:20:47.584Z,81.30
2023-04-08T19:23:17.281Z,82.30
2023-04-08T19:25:46.480Z,81.30
2023-04-08T19:28:14.775Z,81.20
2023-04-08T19:30:42.994Z,81.40
2023-04-08T19:33:11.859Z,81.30
2023-04-08T19:35:40.090Z,81.00
2023-04-08T19:38:08.610Z,82.00
2023-04-08T19:40:36.923Z,81.10
2023-04-08T19:43:05.328Z,81.20
2023-04-08T19:45:34.296Z,81.10
2023-04-08T19:48:02.598Z,80.50
2023-04-08T19:50:30.703Z,80.60
2023-04-08T19:52:58.815Z,80.90
2023-04-08T19:55:26.982Z,80.90
2023-04-08T19:57:55.886Z,80.70
2023-04-08T20:00:25.323Z,80.60
2023-04-08T20:02:53.491Z,81.50
2023-04-08T20:05:21.981Z,81.00
2023-04-08T20:07:50.017Z,80.50
2023-04-08T20:10:19.005Z,80.70
2023-04-08T20:12:47.339Z,80.70
2023-04-08T20:15:24.136Z,80.90
2023-04-08T20:17:53.689Z,81.80
2023-04-08T20:20:23.062Z,81.00
2023-04-08T20:22:51.301Z,81.10
2023-04-08T20:25:20.696Z,81.80
2023-04-08T20:27:48.696Z,80.70
2023-04-08T20:30:16.929Z,81.50
2023-04-08T20:32:45.037Z,82.70
2023-04-08T20:35:13.676Z,82.60
2023-04-08T20:37:42.121Z,82.40
2023-04-08T20:40:12.048Z,82.60
2023-04-08T20:42:40.129Z,82.60
2023-04-08T20:45:08.877Z,83.00
2023-04-08T20:47:37.003Z,83.00
2023-04-08T20:50:06.677Z,82.90
2023-04-08T20:52:34.707Z,83.10
2023-04-08T20:55:02.731Z,83.10
2023-04-08T20:57:30.731Z,83.20
2023-04-08T20:59:58.822Z,83.00
2023-04-08T21:02:27.019Z,82.70
2023-04-08T21:04:55.108Z,82.10
2023-04-08T21:07:26.419Z,82.60
2023-04-08T21:09:54.478Z,82.40
2023-04-08T21:12:22.551Z,82.30
2023-04-08T21:14:51.136Z,82.40
2023-04-08T21:17:19.263Z,82.60
2023-04-08T21:19:47.275Z,82.60
2023-04-08T21:22:16.666Z,82.80
2023-04-08T21:24:44.653Z,82.40
2023-04-08T21:27:12.753Z,82.80
2023-04-08T21:29:40.730Z,82.10
2023-04-08T21:32:08.817Z,82.30
2023-04-08T21:34:37.069Z,82.50
2023-04-08T21:37:06.068Z,82.40
2023-04-08T21:39:34.114Z,82.30
2023-04-08T21:42:02.265Z,82.50
2023-04-08T21:44:30.359Z,82.30
2023-04-08T21:47:00.399Z,82.10
2023-04-08T21:49:32.637Z,82.40
2023-04-08T21:52:00.595Z,82.30
2023-04-08T21:54:29.318Z,82.00
2023-04-08T21:56:57.488Z,81.70
2023-04-08T21:59:25.569Z,82.40
2023-04-08T22:01:53.574Z,82.30
2023-04-08T22:04:22.846Z,82.00
2023-04-08T22:06:51.440Z,81.60
2023-04-08T22:09:20.088Z,82.20
2023-04-08T22:11:48.145Z,81.70
2023-04-08T22:14:17.603Z,81.40
2023-04-08T22:16:45.615Z,81.80
2023-04-08T22:19:13.700Z,81.50
2023-04-08T22:21:41.973Z,81.70
2023-04-08T22:24:09.950Z,81.40
2023-04-08T22:26:37.956Z,81.10
2023-04-08T22:29:06.013Z,81.10
2023-04-08T22:31:34.256Z,81.10
2023-04-08T22:34:02.329Z,81.40
2023-04-08T22:36:30.449Z,81.50
2023-04-08T22:38:58.375Z,82.00
2023-04-08T22:41:26.495Z,82.10
2023-04-08T22:43:54.534Z,82.10
2023-04-08T22:46:22.797Z,82.10
2023-04-08T22:48:51.185Z,81.70
2023-04-08T22:51:19.770Z,81.40
2023-04-08T22:53:47.832Z,81.20
2023-04-08T22:58:44.081Z,81.80
2023-04-08T23:01:18.694Z,81.70
2023-04-08T23:03:47.442Z,81.80
2023-04-08T23:06:15.681Z,81.90
2023-04-08T23:08:44.143Z,81.70
2023-04-08T23:11:12.306Z,81.30
2023-04-08T23:13:41.070Z,81.20
2023-04-08T23:16:10.327Z,81.70
2023-04-08T23:18:39.465Z,81.30
2023-04-08T23:21:07.488Z,81.50
2023-04-08T23:23:35.538Z,81.70
2023-04-08T23:26:03.640Z,82.20
2023-04-08T23:28:31.642Z,82.30
2023-04-08T23:30:59.623Z,82.20
2023-04-08T23:33:27.665Z,82.90
2023-04-08T23:35:55.683Z,82.20
2023-04-08T23:38:23.679Z,82.40
2023-04-08T23:40:51.745Z,82.60
2023-04-08T23:43:19.712Z,82.40
2023-04-08T23:45:47.687Z,82.10
2023-04-08T23:48:15.769Z,82.10
2023-04-08T23:50:43.756Z,81.90
2023-04-08T23:53:11.763Z,82.00
2023-04-08T23:55:39.957Z,82.00
2023-04-08T23:58:07.934Z,81.80
